Impacts METAR Board INFO
IDs:

KSTC - St Cloud Rgnl, MN, US

Updated at: 0020 UTC 11 Dec 2017
Potential Impact None Slight Moderate High
Time10/12Z 10/13Z 10/14Z 10/15Z 10/16Z 10/17Z 10/18Z 10/19Z 10/20Z 10/21Z 10/22Z 10/23Z 11/00Z
VIS10 10 10 10 10 10 10 10 10 10 10 10 10
CIG23 24 21 17 16 17 18 100 110 -- -- -- --
CoverOVCOVCOVCOVCOVCOVCBKNBKNOVCFEWCLRCLRCLR
FltCatMVFRMVFRMVFRMVFRMVFRMVFRMVFRVFRVFRVFRVFRVFRVFR
WX--------------------------
WDir33032032033033034030032031031032000
WSpd7 8 9 11 8 8 10 7 7 8 5 0 0
WGst-- -- -- -- -- -- -- -- -- -- -- -- --
Raw hourly METARs
KSTC 101153Z AUTO 33007KT 10SM OVC023 M04/M06 A2989 RMK AO2 SLP145 I6000 T10391061 11039 21094 53026
KSTC 101253Z 32008KT 10SM OVC024 M04/M06 A2991 RMK AO2 SLP152 T10391061
KSTC 101353Z 32009KT 10SM OVC021 M04/M06 A2993 RMK AO2 SLP160 T10391061
KSTC 101453Z 33011KT 10SM OVC017 M03/M06 A2995 RMK AO2 SLP168 T10331061 53022
KSTC 101553Z 33008KT 10SM OVC016 M03/M06 A2998 RMK AO2 SLP176 T10331061
KSTC 101653Z 34008KT 10SM OVC017 M03/M07 A2998 RMK AO2 SLP178 T10281067
KSTC 101753Z 30010KT 10SM BKN018 M02/M06 A3001 RMK AO2 SLP187 T10221061 11017 21039 53018
KSTC 101853Z 32007KT 10SM FEW022 BKN100 M01/M06 A3000 RMK AO2 SLP183 T10111061
KSTC 101953Z 31007KT 10SM OVC110 M01/M06 A3000 RMK AO2 SLP183 T10111061
KSTC 102053Z 31008KT 10SM FEW100 M01/M06 A3000 RMK AO2 SLP184 T10061061 55002
KSTC 102153Z 32005KT 10SM CLR M02/M07 A3003 RMK AO2 SLP192 T10221067
KSTC 102253Z 00000KT 10SM CLR M04/M07 A3003 RMK AO2 SLP193 T10391072
KSTC 102353Z 00000KT 10SM CLR M04/M08 A3003 RMK AO2 SLP193 T10441078 11006 21061 51009